sensor_id;sensor_type;location;lat;lon;timestamp;pressure;altitude;pressure_sealevel;temperature;humidity
67099;BME280;54288;53.046;5.668;2023-08-06T00:01:38;100744.38;;;13.76;100.00
67099;BME280;54288;53.046;5.668;2023-08-06T00:04:04;100727.06;;;13.69;100.00
67099;BME280;54288;53.046;5.668;2023-08-06T00:06:30;100737.38;;;13.75;100.00
67099;BME280;54288;53.046;5.668;2023-08-06T00:08:56;100737.31;;;13.77;100.00
67099;BME280;54288;53.046;5.668;2023-08-06T00:11:21;100721.56;;;13.75;100.00
67099;BME280;54288;53.046;5.668;2023-08-06T00:13:47;100725.81;;;13.79;100.00
67099;BME280;54288;53.046;5.668;2023-08-06T00:16:13;100723.16;;;13.81;100.00
67099;BME280;54288;53.046;5.668;2023-08-06T00:18:39;100721.34;;;13.81;100.00
67099;BME280;54288;53.046;5.668;2023-08-06T00:21:05;100707.53;;;13.76;100.00
67099;BME280;54288;53.046;5.668;2023-08-06T00:23:31;100724.97;;;13.79;100.00
67099;BME280;54288;53.046;5.668;2023-08-06T00:25:57;100717.88;;;13.81;100.00
67099;BME280;54288;53.046;5.668;2023-08-06T00:28:22;100715.31;;;13.79;100.00
67099;BME280;54288;53.046;5.668;2023-08-06T00:34:06;100720.50;;;13.81;100.00
67099;BME280;54288;53.046;5.668;2023-08-06T00:36:32;100717.84;;;13.82;100.00
67099;BME280;54288;53.046;5.668;2023-08-06T00:38:58;100717.13;;;13.77;100.00
67099;BME280;54288;53.046;5.668;2023-08-06T00:41:24;100732.66;;;13.85;100.00
67099;BME280;54288;53.046;5.668;2023-08-06T00:43:49;100714.50;;;13.77;100.00
67099;BME280;54288;53.046;5.668;2023-08-06T00:46:15;100727.44;;;13.83;100.00
67099;BME280;54288;53.046;5.668;2023-08-06T00:48:41;100730.06;;;13.83;100.00
67099;BME280;54288;53.046;5.668;2023-08-06T00:51:12;100719.59;;;13.82;100.00
67099;BME280;54288;53.046;5.668;2023-08-06T00:53:39;100723.91;;;13.84;100.00
67099;BME280;54288;53.046;5.668;2023-08-06T00:56:06;100712.66;;;13.79;100.00
67099;BME280;54288;53.046;5.668;2023-08-06T00:58:35;100714.34;;;13.82;100.00
67099;BME280;54288;53.046;5.668;2023-08-06T01:01:02;100719.50;;;13.85;100.00
67099;BME280;54288;53.046;5.668;2023-08-06T01:03:28;100714.34;;;13.82;100.00
67099;BME280;54288;53.046;5.668;2023-08-06T01:05:55;100705.56;;;13.81;100.00
67099;BME280;54288;53.046;5.668;2023-08-06T01:11:44;100705.66;;;13.80;100.00
67099;BME280;54288;53.046;5.668;2023-08-06T01:17:09;100707.41;;;13.79;100.00
67099;BME280;54288;53.046;5.668;2023-08-06T01:19:36;100716.09;;;13.81;100.00
67099;BME280;54288;53.046;5.668;2023-08-06T01:22:01;100707.44;;;13.78;100.00
67099;BME280;54288;53.046;5.668;2023-08-06T01:24:27;100718.84;;;13.78;100.00
67099;BME280;54288;53.046;5.668;2023-08-06T01:27:09;100717.00;;;13.80;100.00
67099;BME280;54288;53.046;5.668;2023-08-06T01:29:47;100713.53;;;13.80;100.00
67099;BME280;54288;53.046;5.668;2023-08-06T01:32:15;100711.78;;;13.79;100.00
67099;BME280;54288;53.046;5.668;2023-08-06T01:34:43;100716.97;;;13.82;100.00
67099;BME280;54288;53.046;5.668;2023-08-06T01:37:11;100726.56;;;13.83;100.00
67099;BME280;54288;53.046;5.668;2023-08-06T01:39:37;100729.16;;;13.84;100.00
67099;BME280;54288;53.046;5.668;2023-08-06T01:42:06;100726.47;;;13.86;100.00
67099;BME280;54288;53.046;5.668;2023-08-06T01:44:32;100709.03;;;13.83;100.00
67099;BME280;54288;53.046;5.668;2023-08-06T01:46:59;100723.78;;;13.87;100.00
67099;BME280;54288;53.046;5.668;2023-08-06T01:49:25;100722.94;;;13.87;100.00
67099;BME280;54288;53.046;5.668;2023-08-06T01:51:50;100716.91;;;13.83;100.00
67099;BME280;54288;53.046;5.668;2023-08-06T01:54:16;100715.22;;;13.82;100.00
67099;BME280;54288;53.046;5.668;2023-08-06T01:56:43;100721.13;;;13.87;100.00
67099;BME280;54288;53.046;5.668;2023-08-06T01:59:10;100707.09;;;13.88;100.00
67099;BME280;54288;53.046;5.668;2023-08-06T02:01:35;100706.38;;;13.83;100.00
67099;BME280;54288;53.046;5.668;2023-08-06T02:04:01;100707.97;;;13.87;100.00
67099;BME280;54288;53.046;5.668;2023-08-06T02:06:28;100714.09;;;13.88;100.00
67099;BME280;54288;53.046;5.668;2023-08-06T02:08:54;100707.19;;;13.85;100.00
67099;BME280;54288;53.046;5.668;2023-08-06T02:11:20;100698.53;;;13.82;100.00
67099;BME280;54288;53.046;5.668;2023-08-06T02:13:46;100708.84;;;13.88;100.00
67099;BME280;54288;53.046;5.668;2023-08-06T02:16:16;100700.94;;;13.88;100.00
67099;BME280;54288;53.046;5.668;2023-08-06T02:18:42;100698.31;;;13.88;100.00
67099;BME280;54288;53.046;5.668;2023-08-06T02:21:07;100687.91;;;13.85;100.00
67099;BME280;54288;53.046;5.668;2023-08-06T02:23:33;100687.13;;;13.81;100.00
67099;BME280;54288;53.046;5.668;2023-08-06T02:25:59;100692.19;;;13.87;100.00
67099;BME280;54288;53.046;5.668;2023-08-06T02:28:25;100693.97;;;13.87;100.00
67099;BME280;54288;53.046;5.668;2023-08-06T02:30:51;100688.66;;;13.88;100.00
67099;BME280;54288;53.046;5.668;2023-08-06T02:33:17;100681.78;;;13.84;100.00
67099;BME280;54288;53.046;5.668;2023-08-06T02:35:43;100686.16;;;13.84;100.00
67099;BME280;54288;53.046;5.668;2023-08-06T02:38:08;100684.28;;;13.87;100.00
67099;BME280;54288;53.046;5.668;2023-08-06T02:40:34;100692.19;;;13.87;100.00
67099;BME280;54288;53.046;5.668;2023-08-06T02:43:00;100691.34;;;13.87;100.00
67099;BME280;54288;53.046;5.668;2023-08-06T02:45:25;100693.06;;;13.88;100.00
67099;BME280;54288;53.046;5.668;2023-08-06T02:47:51;100680.81;;;13.87;100.00
67099;BME280;54288;53.046;5.668;2023-08-06T02:50:17;100685.09;;;13.89;100.00
67099;BME280;54288;53.046;5.668;2023-08-06T02:52:43;100678.97;;;13.89;100.00
67099;BME280;54288;53.046;5.668;2023-08-06T02:55:09;100672.91;;;13.87;100.00
67099;BME280;54288;53.046;5.668;2023-08-06T02:57:40;100665.94;;;13.86;100.00
67099;BME280;54288;53.046;5.668;2023-08-06T03:00:06;100666.84;;;13.85;100.00
67099;BME280;54288;53.046;5.668;2023-08-06T03:02:32;100678.00;;;13.91;100.00
67099;BME280;54288;53.046;5.668;2023-08-06T03:05:12;100668.44;;;13.89;100.00
67099;BME280;54288;53.046;5.668;2023-08-06T03:07:42;100676.25;;;13.92;100.00
67099;BME280;54288;53.046;5.668;2023-08-06T03:10:14;100676.09;;;13.95;100.00
67099;BME280;54288;53.046;5.668;2023-08-06T03:12:41;100673.47;;;13.95;100.00
67099;BME280;54288;53.046;5.668;2023-08-06T03:15:07;100674.31;;;13.97;100.00
67099;BME280;54288;53.046;5.668;2023-08-06T03:17:33;100673.47;;;13.95;100.00
67099;BME280;54288;53.046;5.668;2023-08-06T03:19:59;100669.78;;;14.00;100.00
67099;BME280;54288;53.046;5.668;2023-08-06T03:22:25;100674.31;;;13.97;100.00
67099;BME280;54288;53.046;5.668;2023-08-06T03:24:51;100672.47;;;13.99;100.00
67099;BME280;54288;53.046;5.668;2023-08-06T03:27:19;100656.72;;;13.97;100.00
67099;BME280;54288;53.046;5.668;2023-08-06T03:29:49;100662.72;;;14.01;100.00
67099;BME280;54288;53.046;5.668;2023-08-06T03:32:16;100665.47;;;13.98;100.00
67099;BME280;54288;53.046;5.668;2023-08-06T03:34:42;100660.97;;;14.01;100.00
67099;BME280;54288;53.046;5.668;2023-08-06T03:37:08;100655.88;;;13.97;100.00
67099;BME280;54288;53.046;5.668;2023-08-06T03:39:34;100650.75;;;13.92;100.00
67099;BME280;54288;53.046;5.668;2023-08-06T03:42:01;100666.31;;;13.98;100.00
67099;BME280;54288;53.046;5.668;2023-08-06T03:44:27;100657.75;;;13.93;100.00
67099;BME280;54288;53.046;5.668;2023-08-06T03:46:54;100659.41;;;13.96;100.00
67099;BME280;54288;53.046;5.668;2023-08-06T03:49:20;100662.94;;;13.95;100.00
67099;BME280;54288;53.046;5.668;2023-08-06T03:51:46;100666.28;;;14.00;100.00
67099;BME280;54288;53.046;5.668;2023-08-06T03:54:12;100660.25;;;13.96;100.00
67099;BME280;54288;53.046;5.668;2023-08-06T03:56:38;100666.41;;;13.97;100.00
67099;BME280;54288;53.046;5.668;2023-08-06T03:59:04;100681.28;;;13.98;100.00
67099;BME280;54288;53.046;5.668;2023-08-06T04:01:29;100676.84;;;13.98;100.00
67099;BME280;54288;53.046;5.668;2023-08-06T04:03:55;100655.13;;;13.93;100.00
67099;BME280;54288;53.046;5.668;2023-08-06T04:06:21;100660.25;;;13.96;100.00
67099;BME280;54288;53.046;5.668;2023-08-06T04:08:46;100664.66;;;13.96;100.00
67099;BME280;54288;53.046;5.668;2023-08-06T04:11:12;100658.59;;;13.94;100.00
67099;BME280;54288;53.046;5.668;2023-08-06T04:13:44;100660.44;;;13.92;100.00
67099;BME280;54288;53.046;5.668;2023-08-06T04:16:10;100655.13;;;13.93;100.00
67099;BME280;54288;53.046;5.668;2023-08-06T04:18:36;100661.25;;;13.94;100.00
67099;BME280;54288;53.046;5.668;2023-08-06T04:21:02;100661.38;;;13.91;100.00
67099;BME280;54288;53.046;5.668;2023-08-06T04:23:28;100664.84;;;13.91;100.00
67099;BME280;54288;53.046;5.668;2023-08-06T04:26:12;100666.63;;;13.91;100.00
67099;BME280;54288;53.046;5.668;2023-08-06T04:28:38;100681.16;;;14.01;100.00
67099;BME280;54288;53.046;5.668;2023-08-06T04:31:04;100680.25;;;14.02;100.00
67099;BME280;54288;53.046;5.668;2023-08-06T04:33:32;100675.00;;;14.02;100.00
67099;BME280;54288;53.046;5.668;2023-08-06T04:36:02;100675.03;;;14.00;100.00
67099;BME280;54288;53.046;5.668;2023-08-06T04:38:28;100681.84;;;14.06;100.00
67099;BME280;54288;53.046;5.668;2023-08-06T04:40:55;100668.72;;;14.04;100.00
67099;BME280;54288;53.046;5.668;2023-08-06T04:43:22;100670.34;;;14.08;100.00
67099;BME280;54288;53.046;5.668;2023-08-06T04:45:54;100670.38;;;14.07;100.00
67099;BME280;54288;53.046;5.668;2023-08-06T04:48:22;100687.84;;;14.09;100.00
67099;BME280;54288;53.046;5.668;2023-08-06T04:50:50;100684.38;;;14.09;100.00
67099;BME280;54288;53.046;5.668;2023-08-06T04:53:16;100676.47;;;14.09;100.00
67099;BME280;54288;53.046;5.668;2023-08-06T04:55:42;100676.28;;;14.13;100.00
67099;BME280;54288;53.046;5.668;2023-08-06T04:58:11;100676.44;;;14.10;100.00
67099;BME280;54288;53.046;5.668;2023-08-06T05:00:37;100677.16;;;14.14;100.00
67099;BME280;54288;53.046;5.668;2023-08-06T05:03:04;100683.19;;;14.17;100.00
67099;BME280;54288;53.046;5.668;2023-08-06T05:05:30;100683.16;;;14.19;100.00
67099;BME280;54288;53.046;5.668;2023-08-06T05:07:57;100682.25;;;14.20;100.00
67099;BME280;54288;53.046;5.668;2023-08-06T05:10:25;100681.38;;;14.18;100.00
67099;BME280;54288;53.046;5.668;2023-08-06T05:12:51;100689.22;;;14.21;100.00
67099;BME280;54288;53.046;5.668;2023-08-06T05:15:17;100686.63;;;14.19;100.00
67099;BME280;54288;53.046;5.668;2023-08-06T05:17:43;100679.47;;;14.23;100.00
67099;BME280;54288;53.046;5.668;2023-08-06T05:20:09;100677.72;;;14.23;100.00
67099;BME280;54288;53.046;5.668;2023-08-06T05:22:34;100677.66;;;14.25;100.00
67099;BME280;54288;53.046;5.668;2023-08-06T05:25:00;100685.31;;;14.31;100.00
67099;BME280;54288;53.046;5.668;2023-08-06T05:27:26;100679.91;;;14.34;100.00
67099;BME280;54288;53.046;5.668;2023-08-06T05:29:55;100693.91;;;14.36;100.00
67099;BME280;54288;53.046;5.668;2023-08-06T05:32:21;100687.22;;;14.27;100.00
67099;BME280;54288;53.046;5.668;2023-08-06T05:34:47;100693.47;;;14.25;100.00
67099;BME280;54288;53.046;5.668;2023-08-06T05:37:13;100702.03;;;14.30;100.00
67099;BME280;54288;53.046;5.668;2023-08-06T05:39:38;100702.84;;;14.32;100.00
67099;BME280;54288;53.046;5.668;2023-08-06T05:42:04;100700.94;;;14.35;100.00
67099;BME280;54288;53.046;5.668;2023-08-06T05:44:30;100706.16;;;14.37;100.00
67099;BME280;54288;53.046;5.668;2023-08-06T05:46:56;100703.34;;;14.41;100.00
67099;BME280;54288;53.046;5.668;2023-08-06T05:49:21;100699.69;;;14.45;100.00
67099;BME280;54288;53.046;5.668;2023-08-06T05:51:47;100706.66;;;14.46;100.00
67099;BME280;54288;53.046;5.668;2023-08-06T05:54:13;100707.50;;;14.47;100.00
67099;BME280;54288;53.046;5.668;2023-08-06T05:56:39;100701.22;;;14.51;100.00
67099;BME280;54288;53.046;5.668;2023-08-06T05:59:05;100709.69;;;14.59;100.00
67099;BME280;54288;53.046;5.668;2023-08-06T06:01:30;100703.38;;;14.63;100.00
67099;BME280;54288;53.046;5.668;2023-08-06T06:03:56;100712.94;;;14.65;100.00
67099;BME280;54288;53.046;5.668;2023-08-06T06:06:22;100712.97;;;14.64;100.00
67099;BME280;54288;53.046;5.668;2023-08-06T06:08:47;100707.63;;;14.67;100.00
67099;BME280;54288;53.046;5.668;2023-08-06T06:11:13;100712.59;;;14.74;100.00
67099;BME280;54288;53.046;5.668;2023-08-06T06:13:39;100712.53;;;14.76;100.00
67099;BME280;54288;53.046;5.668;2023-08-06T06:16:04;100708.59;;;14.86;100.00
67099;BME280;54288;53.046;5.668;2023-08-06T06:18:30;100714.50;;;14.92;100.00
67099;BME280;54288;53.046;5.668;2023-08-06T06:20:56;100714.69;;;14.88;100.00
67099;BME280;54288;53.046;5.668;2023-08-06T06:23:22;100715.56;;;14.87;100.00
67099;BME280;54288;53.046;5.668;2023-08-06T06:25:50;100717.22;;;14.89;100.00
67099;BME280;54288;53.046;5.668;2023-08-06T06:28:19;100721.66;;;14.89;100.00
67099;BME280;54288;53.046;5.668;2023-08-06T06:30:45;100722.69;;;14.85;100.00
67099;BME280;54288;53.046;5.668;2023-08-06T06:33:10;100726.81;;;14.92;100.00
67099;BME280;54288;53.046;5.668;2023-08-06T06:35:37;100723.91;;;14.98;100.00
67099;BME280;54288;53.046;5.668;2023-08-06T06:38:02;100725.56;;;15.00;100.00
67099;BME280;54288;53.046;5.668;2023-08-06T06:40:28;100724.19;;;15.13;100.00
67099;BME280;54288;53.046;5.668;2023-08-06T06:42:54;100719.50;;;15.20;100.00
67099;BME280;54288;53.046;5.668;2023-08-06T06:45:20;100724.75;;;15.20;100.00
67099;BME280;54288;53.046;5.668;2023-08-06T06:47:45;100719.50;;;15.20;100.00
67099;BME280;54288;53.046;5.668;2023-08-06T06:50:11;100728.06;;;15.25;100.00
67099;BME280;54288;53.046;5.668;2023-08-06T06:52:37;100732.03;;;15.36;100.00
67099;BME280;54288;53.046;5.668;2023-08-06T06:55:03;100727.75;;;15.34;100.00
67099;BME280;54288;53.046;5.668;2023-08-06T06:57:29;100727.50;;;15.40;100.00
67099;BME280;54288;53.046;5.668;2023-08-06T06:59:55;100721.81;;;15.49;100.00
67099;BME280;54288;53.046;5.668;2023-08-06T07:02:20;100729.41;;;15.56;100.00
67099;BME280;54288;53.046;5.668;2023-08-06T07:04:46;100729.34;;;15.78;100.00
67099;BME280;54288;53.046;5.668;2023-08-06T07:07:12;100728.84;;;16.08;100.00
67099;BME280;54288;53.046;5.668;2023-08-06T07:09:37;100733.53;;;16.22;100.00
67099;BME280;54288;53.046;5.668;2023-08-06T07:12:06;100732.19;;;16.32;100.00
67099;BME280;54288;53.046;5.668;2023-08-06T07:14:32;100730.72;;;16.82;100.00
67099;BME280;54288;53.046;5.668;2023-08-06T07:16:58;100731.22;;;17.25;100.00
67099;BME280;54288;53.046;5.668;2023-08-06T07:19:24;100734.22;;;17.53;100.00
67099;BME280;54288;53.046;5.668;2023-08-06T07:21:49;100733.06;;;17.59;100.00
67099;BME280;54288;53.046;5.668;2023-08-06T07:24:16;100730.41;;;17.42;100.00
67099;BME280;54288;53.046;5.668;2023-08-06T07:26:41;100741.34;;;16.99;100.00
67099;BME280;54288;53.046;5.668;2023-08-06T07:29:07;100737.31;;;17.09;100.00
67099;BME280;54288;53.046;5.668;2023-08-06T07:31:33;100736.31;;;17.11;100.00
67099;BME280;54288;53.046;5.668;2023-08-06T07:33:59;100744.44;;;17.44;100.00
67099;BME280;54288;53.046;5.668;2023-08-06T07:36:24;100742.88;;;17.57;100.00
67099;BME280;54288;53.046;5.668;2023-08-06T07:38:50;100746.91;;;17.64;100.00
67099;BME280;54288;53.046;5.668;2023-08-06T07:41:22;100750.66;;;17.60;100.00
67099;BME280;54288;53.046;5.668;2023-08-06T07:43:48;100749.19;;;17.54;100.00
67099;BME280;54288;53.046;5.668;2023-08-06T07:46:13;100754.31;;;17.40;100.00
67099;BME280;54288;53.046;5.668;2023-08-06T07:48:39;100750.69;;;17.24;100.00
67099;BME280;54288;53.046;5.668;2023-08-06T07:51:05;100750.13;;;17.35;100.00
67099;BME280;54288;53.046;5.668;2023-08-06T07:53:30;100756.97;;;17.22;100.00
67099;BME280;54288;53.046;5.668;2023-08-06T07:55:56;100747.16;;;17.42;100.00
67099;BME280;54288;53.046;5.668;2023-08-06T07:58:24;100756.34;;;17.52;100.00
67099;BME280;54288;53.046;5.668;2023-08-06T08:00:50;100754.84;;;17.47;100.00
67099;BME280;54288;53.046;5.668;2023-08-06T08:03:16;100751.06;;;17.52;100.00
67099;BME280;54288;53.046;5.668;2023-08-06T08:05:43;100745.97;;;17.48;100.00
67099;BME280;54288;53.046;5.668;2023-08-06T08:08:09;100750.97;;;17.88;100.00
67099;BME280;54288;53.046;5.668;2023-08-06T08:10:35;100750.75;;;17.92;100.00
67099;BME280;54288;53.046;5.668;2023-08-06T08:13:02;100756.25;;;17.88;100.00
67099;BME280;54288;53.046;5.668;2023-08-06T08:15:29;100748.09;;;17.92;100.00
67099;BME280;54288;53.046;5.668;2023-08-06T08:17:55;100734.53;;;17.98;100.00
67099;BME280;54288;53.046;5.668;2023-08-06T08:20:21;100755.31;;;18.06;100.00
67099;BME280;54288;53.046;5.668;2023-08-06T08:22:47;100747.63;;;18.17;100.00
67099;BME280;54288;53.046;5.668;2023-08-06T08:25:13;100748.59;;;18.16;100.00
67099;BME280;54288;53.046;5.668;2023-08-06T08:27:39;100741.56;;;18.15;100.00
67099;BME280;54288;53.046;5.668;2023-08-06T08:30:05;100738.25;;;18.27;100.00
67099;BME280;54288;53.046;5.668;2023-08-06T08:32:31;100740.56;;;18.50;100.00
67099;BME280;54288;53.046;5.668;2023-08-06T08:34:57;100743.00;;;18.54;100.00
67099;BME280;54288;53.046;5.668;2023-08-06T08:37:23;100743.84;;;18.70;100.00
67099;BME280;54288;53.046;5.668;2023-08-06T08:39:49;100747.63;;;18.82;100.00
67099;BME280;54288;53.046;5.668;2023-08-06T08:42:15;100744.97;;;18.66;100.00
67099;BME280;54288;53.046;5.668;2023-08-06T08:44:42;100748.31;;;18.85;100.00
67099;BME280;54288;53.046;5.668;2023-08-06T08:47:08;100750.28;;;18.82;100.00
67099;BME280;54288;53.046;5.668;2023-08-06T08:49:36;100743.19;;;18.98;100.00
67099;BME280;54288;53.046;5.668;2023-08-06T08:52:04;100749.50;;;19.11;100.00
67099;BME280;54288;53.046;5.668;2023-08-06T08:54:35;100753.25;;;19.07;100.00
67099;BME280;54288;53.046;5.668;2023-08-06T08:57:04;100736.94;;;18.83;100.00
67099;BME280;54288;53.046;5.668;2023-08-06T08:59:32;100740.63;;;18.81;100.00
67099;BME280;54288;53.046;5.668;2023-08-06T09:02:02;100754.50;;;18.86;100.00
67099;BME280;54288;53.046;5.668;2023-08-06T09:04:31;100753.09;;;19.10;100.00
67099;BME280;54288;53.046;5.668;2023-08-06T09:06:59;100748.16;;;19.04;100.00
67099;BME280;54288;53.046;5.668;2023-08-06T09:09:35;100755.94;;;18.91;100.00
67099;BME280;54288;53.046;5.668;2023-08-06T09:12:12;100753.09;;;19.10;100.00
67099;BME280;54288;53.046;5.668;2023-08-06T09:14:39;100758.63;;;19.22;100.00
67099;BME280;54288;53.046;5.668;2023-08-06T09:17:05;100757.13;;;19.17;100.00
67099;BME280;54288;53.046;5.668;2023-08-06T09:19:31;100749.34;;;19.14;100.00
67099;BME280;54288;53.046;5.668;2023-08-06T09:21:58;100762.34;;;19.34;100.00
67099;BME280;54288;53.046;5.668;2023-08-06T09:24:24;100758.94;;;19.32;100.00
67099;BME280;54288;53.046;5.668;2023-08-06T09:26:51;100764.94;;;19.35;100.00
67099;BME280;54288;53.046;5.668;2023-08-06T09:29:17;100766.03;;;19.31;100.00
67099;BME280;54288;53.046;5.668;2023-08-06T09:31:48;100772.81;;;19.37;100.00
67099;BME280;54288;53.046;5.668;2023-08-06T09:34:19;100775.38;;;19.23;100.00
67099;BME280;54288;53.046;5.668;2023-08-06T09:36:50;100774.53;;;19.38;100.00
67099;BME280;54288;53.046;5.668;2023-08-06T09:39:20;100775.22;;;19.26;100.00
67099;BME280;54288;53.046;5.668;2023-08-06T09:41:47;100782.72;;;19.18;100.00
67099;BME280;54288;53.046;5.668;2023-08-06T09:44:20;100782.06;;;19.45;100.00
67099;BME280;54288;53.046;5.668;2023-08-06T09:47:00;100775.78;;;19.76;100.00
67099;BME280;54288;53.046;5.668;2023-08-06T09:51:54;100779.28;;;20.06;100.00
67099;BME280;54288;53.046;5.668;2023-08-06T09:54:24;100776.50;;;20.37;100.00
67099;BME280;54288;53.046;5.668;2023-08-06T09:56:53;100780.19;;;20.62;100.00
67099;BME280;54288;53.046;5.668;2023-08-06T09:59:19;100778.59;;;20.74;100.00
67099;BME280;54288;53.046;5.668;2023-08-06T10:01:46;100780.47;;;20.72;100.00
67099;BME280;54288;53.046;5.668;2023-08-06T10:04:14;100786.38;;;21.31;100.00
67099;BME280;54288;53.046;5.668;2023-08-06T10:06:43;100786.44;;;21.44;100.00
67099;BME280;54288;53.046;5.668;2023-08-06T10:09:11;100785.69;;;21.42;100.00
67099;BME280;54288;53.046;5.668;2023-08-06T10:11:37;100785.38;;;21.46;96.79
67099;BME280;54288;53.046;5.668;2023-08-06T10:14:13;100784.25;;;21.77;99.98
67099;BME280;54288;53.046;5.668;2023-08-06T10:16:41;100787.91;;;21.35;92.93
67099;BME280;54288;53.046;5.668;2023-08-06T10:19:09;100782.31;;;21.26;100.00
67099;BME280;54288;53.046;5.668;2023-08-06T10:21:38;100785.03;;;21.65;98.46
67099;BME280;54288;53.046;5.668;2023-08-06T10:24:07;100787.72;;;22.04;94.93
67099;BME280;54288;53.046;5.668;2023-08-06T10:26:34;100784.50;;;22.24;87.91
67099;BME280;54288;53.046;5.668;2023-08-06T10:29:00;100784.97;;;22.68;94.14
67099;BME280;54288;53.046;5.668;2023-08-06T10:31:54;100787.81;;;22.40;89.47
67099;BME280;54288;53.046;5.668;2023-08-06T10:34:20;100786.25;;;21.86;92.03
67099;BME280;54288;53.046;5.668;2023-08-06T10:36:46;100782.94;;;21.70;89.47
67099;BME280;54288;53.046;5.668;2023-08-06T10:39:15;100776.97;;;21.79;90.70
67099;BME280;54288;53.046;5.668;2023-08-06T10:41:44;100788.53;;;22.04;88.78
67099;BME280;54288;53.046;5.668;2023-08-06T10:44:11;100781.91;;;21.85;88.54
67099;BME280;54288;53.046;5.668;2023-08-06T10:46:38;100781.56;;;21.77;92.66
67099;BME280;54288;53.046;5.668;2023-08-06T10:49:04;100788.19;;;21.84;93.92
67099;BME280;54288;53.046;5.668;2023-08-06T10:51:30;100789.56;;;21.77;93.15
67099;BME280;54288;53.046;5.668;2023-08-06T10:53:56;100783.28;;;21.64;92.12
67099;BME280;54288;53.046;5.668;2023-08-06T10:56:25;100792.13;;;21.78;95.93
67099;BME280;54288;53.046;5.668;2023-08-06T10:58:54;100788.28;;;21.70;91.95
67099;BME280;54288;53.046;5.668;2023-08-06T11:01:23;100791.97;;;21.41;93.83
67099;BME280;54288;53.046;5.668;2023-08-06T11:03:49;100793.31;;;21.34;97.71
67099;BME280;54288;53.046;5.668;2023-08-06T11:06:20;100783.00;;;21.15;96.19
67099;BME280;54288;53.046;5.668;2023-08-06T11:08:54;100792.06;;;21.13;98.65
67099;BME280;54288;53.046;5.668;2023-08-06T11:11:22;100783.88;;;21.16;100.00
67099;BME280;54288;53.046;5.668;2023-08-06T11:13:49;100787.50;;;21.01;100.00
67099;BME280;54288;53.046;5.668;2023-08-06T11:16:17;100786.47;;;20.75;100.00
67099;BME280;54288;53.046;5.668;2023-08-06T11:18:44;100787.81;;;20.40;99.75
67099;BME280;54288;53.046;5.668;2023-08-06T11:21:11;100780.66;;;20.13;100.00
67099;BME280;54288;53.046;5.668;2023-08-06T11:23:40;100786.03;;;19.82;100.00
67099;BME280;54288;53.046;5.668;2023-08-06T11:26:07;100785.66;;;19.74;100.00
67099;BME280;54288;53.046;5.668;2023-08-06T11:28:33;100791.84;;;19.59;100.00
67099;BME280;54288;53.046;5.668;2023-08-06T11:30:58;100792.31;;;19.36;100.00
67099;BME280;54288;53.046;5.668;2023-08-06T11:33:28;100799.06;;;19.10;100.00
67099;BME280;54288;53.046;5.668;2023-08-06T11:35:56;100789.13;;;18.83;100.00
67099;BME280;54288;53.046;5.668;2023-08-06T11:38:25;100789.22;;;18.81;100.00
67099;BME280;54288;53.046;5.668;2023-08-06T11:40:51;100797.78;;;18.86;100.00
67099;BME280;54288;53.046;5.668;2023-08-06T11:43:19;100799.00;;;18.81;100.00
67099;BME280;54288;53.046;5.668;2023-08-06T11:45:46;100788.94;;;18.70;100.00
67099;BME280;54288;53.046;5.668;2023-08-06T11:48:12;100800.91;;;18.62;100.00
67099;BME280;54288;53.046;5.668;2023-08-06T11:50:38;100806.88;;;18.50;100.00
67099;BME280;54288;53.046;5.668;2023-08-06T11:53:04;100808.50;;;18.52;100.00
67099;BME280;54288;53.046;5.668;2023-08-06T11:55:31;100805.53;;;18.58;100.00
67099;BME280;54288;53.046;5.668;2023-08-06T11:57:57;100815.47;;;18.70;100.00
67099;BME280;54288;53.046;5.668;2023-08-06T12:00:24;100804.03;;;18.70;100.00
67099;BME280;54288;53.046;5.668;2023-08-06T12:02:52;100805.94;;;18.83;100.00
67099;BME280;54288;53.046;5.668;2023-08-06T12:05:22;100806.16;;;18.79;100.00
67099;BME280;54288;53.046;5.668;2023-08-06T12:07:58;100806.59;;;18.71;100.00
67099;BME280;54288;53.046;5.668;2023-08-06T12:10:26;100806.41;;;18.59;100.00
67099;BME280;54288;53.046;5.668;2023-08-06T12:12:53;100811.41;;;18.48;100.00
67099;BME280;54288;53.046;5.668;2023-08-06T12:15:19;100827.31;;;18.48;100.00
67099;BME280;54288;53.046;5.668;2023-08-06T12:17:45;100817.41;;;18.51;100.00
67099;BME280;54288;53.046;5.668;2023-08-06T12:20:11;100825.63;;;18.47;100.00
67099;BME280;54288;53.046;5.668;2023-08-06T12:22:37;100828.81;;;18.36;100.00
67099;BME280;54288;53.046;5.668;2023-08-06T12:25:10;100829.44;;;18.41;100.00
67099;BME280;54288;53.046;5.668;2023-08-06T12:27:39;100826.78;;;18.41;100.00
67099;BME280;54288;53.046;5.668;2023-08-06T12:30:07;100832.31;;;18.54;100.00
67099;BME280;54288;53.046;5.668;2023-08-06T12:32:33;100824.19;;;18.57;100.00
67099;BME280;54288;53.046;5.668;2023-08-06T12:34:59;100831.97;;;18.60;100.00
67099;BME280;54288;53.046;5.668;2023-08-06T12:37:26;100822.94;;;18.64;100.00
67099;BME280;54288;53.046;5.668;2023-08-06T12:39:52;100828.41;;;18.76;100.00
67099;BME280;54288;53.046;5.668;2023-08-06T12:42:17;100838.59;;;18.84;100.00
67099;BME280;54288;53.046;5.668;2023-08-06T12:44:43;100828.69;;;18.87;100.00
67099;BME280;54288;53.046;5.668;2023-08-06T12:47:09;100826.56;;;18.94;100.00
67099;BME280;54288;53.046;5.668;2023-08-06T12:49:35;100830.78;;;18.98;100.00
67099;BME280;54288;53.046;5.668;2023-08-06T12:52:00;100834.59;;;19.08;100.00